Details for KLM Cityhopper at EHAM




Go Back


Latest METAR
Local Time

EHAM 180625Z 20011KT 9999 FEW010 BKN045 17/15 Q1020 NOSIG
18/08/2018, 08:29:59

Description
Results
KLM Cityhopper Logo
Number of Pilots based at EHAM
2 Pilots Based here
Number of KLM Cityhopper Flights Departed from EHAM
4 Flights Departed
Number of KLM Cityhopper Flights Arrived at EHAM
3 Flights Arrived
Number of KLM Cityhopper Schedules Departing from EHAM
212 Schedules
Number of KLM Cityhopper Schedules Arriving at EHAM
230 Schedules
Number of KLM Cityhopper Schedules Departing from EHAM availible today
134 Schedules Today
Number of KLM Cityhopper Schedules Arriving at EHAM availible today
137 Schedules Today
Average Landing Rate at EHAM
-212 fpm
KLM Cityhopper Average Landing Rate at EHAM
-169 fpm
Total Fuel Purchased at EHAM by KLM Cityhopper
3,998.34 kgs / 8,814.74 lbs

Pilots Based at EHAM


Pilot ID
Pilot Name
Pilot Rank
No. of Flights
No. of Flying Hours
Youri Rutten
84
199.28
James Hatcher
129
549.28
Content